aviador You're here:

KPIA Decoded Metar

PEORIA in IL, USA
Report Time2018-05-27 00:54:00
UTC Time2018-05-27 01:06:23
Flight Rules vfr VFR
Wind200° at 03 kt
W.Decomp.*RWY 22: 2.8 kt HW 1.1 kt LCW
RWY 13: 1.1 kt HW 2.8 kt RCW
W.Rank200° ranks 3
Current wind is below 200° avg. (8.6)
Visibility9999 m
Phenomena:N/A
Clouds:N/A
Expected CloudBase > 2,400 ft AGL from Temp-Dew spread
CeilingNone
Temp28°C (ISA +14)
Dew Point22°C (70% RH)
Heat Index30.7°C
QNH1008 hPa
Density Alt2,841 ft
Elevation673 ft
Report Wrong Elevation
Raw Report
KPIA 270054Z 20003KT 10SM CLR 28/22 A2976 RMK AO2 SLP074
T02780222=

Extra information for KPIA:More info

Metar Taf Metar & Taf Last 4 Metars F.Rules Stats Wind Profile Meteogram Temp Stats Airport Information Weather charts Add Link Nearby VenuesMetar ALERT Operation Metar Decoded Social comments

AIRNAV info for KPIA